sensor_id;sensor_type;location;lat;lon;timestamp;pressure;altitude;pressure_sealevel;temperature;humidity
47897;BME280;39629;51.400;5.494;2022-09-09T00:00:58;100631.97;;;15.35;100.00
47897;BME280;39629;51.400;5.494;2022-09-09T00:06:09;100629.88;;;15.55;100.00
47897;BME280;39629;51.400;5.494;2022-09-09T00:11:17;100624.34;;;15.32;100.00
47897;BME280;39629;51.400;5.494;2022-09-09T00:16:22;100626.03;;;15.49;100.00
47897;BME280;39629;51.400;5.494;2022-09-09T00:21:30;100614.41;;;15.34;100.00
47897;BME280;39629;51.400;5.494;2022-09-09T00:26:38;100611.59;;;15.27;100.00
47897;BME280;39629;51.400;5.494;2022-09-09T00:31:43;100615.22;;;15.26;100.00
47897;BME280;39629;51.400;5.494;2022-09-09T00:36:45;100611.56;;;15.19;100.00
47897;BME280;39629;51.400;5.494;2022-09-09T00:41:55;100602.78;;;15.19;100.00
47897;BME280;39629;51.400;5.494;2022-09-09T00:47:18;100605.56;;;15.17;100.00
47897;BME280;39629;51.400;5.494;2022-09-09T00:52:33;100596.97;;;15.23;100.00
47897;BME280;39629;51.400;5.494;2022-09-09T00:57:38;100599.19;;;15.36;100.00
47897;BME280;39629;51.400;5.494;2022-09-09T01:02:52;100595.50;;;15.29;100.00
47897;BME280;39629;51.400;5.494;2022-09-09T01:07:54;100587.41;;;15.30;100.00
47897;BME280;39629;51.400;5.494;2022-09-09T01:12:58;100595.03;;;15.33;100.00
47897;BME280;39629;51.400;5.494;2022-09-09T01:18:07;100594.81;;;15.19;100.00
47897;BME280;39629;51.400;5.494;2022-09-09T01:23:38;100587.84;;;15.18;100.00
47897;BME280;39629;51.400;5.494;2022-09-09T01:28:57;100589.66;;;15.17;100.00
47897;BME280;39629;51.400;5.494;2022-09-09T01:34:10;100580.41;;;15.13;100.00
47897;BME280;39629;51.400;5.494;2022-09-09T01:39:13;100585.06;;;15.19;100.00
47897;BME280;39629;51.400;5.494;2022-09-09T01:44:19;100582.91;;;15.23;100.00
47897;BME280;39629;51.400;5.494;2022-09-09T01:49:21;100576.28;;;15.19;100.00
47897;BME280;39629;51.400;5.494;2022-09-09T01:54:26;100565.47;;;15.12;100.00
47897;BME280;39629;51.400;5.494;2022-09-09T01:59:45;100561.63;;;15.06;100.00
47897;BME280;39629;51.400;5.494;2022-09-09T02:04:51;100563.00;;;15.10;100.00
47897;BME280;39629;51.400;5.494;2022-09-09T02:10:02;100551.84;;;14.99;100.00
47897;BME280;39629;51.400;5.494;2022-09-09T02:15:16;100560.34;;;15.10;100.00
47897;BME280;39629;51.400;5.494;2022-09-09T02:20:24;100557.84;;;15.09;100.00
47897;BME280;39629;51.400;5.494;2022-09-09T02:25:33;100562.19;;;15.10;100.00
47897;BME280;39629;51.400;5.494;2022-09-09T02:30:50;100562.47;;;15.07;100.00
47897;BME280;39629;51.400;5.494;2022-09-09T02:35:59;100553.13;;;14.95;100.00
47897;BME280;39629;51.400;5.494;2022-09-09T02:46:43;100550.09;;;15.24;100.00
47897;BME280;39629;51.400;5.494;2022-09-09T02:51:53;100555.69;;;15.12;100.00
47897;BME280;39629;51.400;5.494;2022-09-09T02:57:06;100549.53;;;15.04;100.00
47897;BME280;39629;51.400;5.494;2022-09-09T03:02:13;100557.78;;;15.01;100.00
47897;BME280;39629;51.400;5.494;2022-09-09T03:07:17;100559.38;;;15.20;100.00
47897;BME280;39629;51.400;5.494;2022-09-09T03:12:20;100548.56;;;15.05;100.00
47897;BME280;39629;51.400;5.494;2022-09-09T03:17:24;100546.88;;;15.04;100.00
47897;BME280;39629;51.400;5.494;2022-09-09T03:22:30;100557.56;;;15.20;100.00
47897;BME280;39629;51.400;5.494;2022-09-09T03:27:33;100565.13;;;15.07;100.00
47897;BME280;39629;51.400;5.494;2022-09-09T03:32:38;100555.38;;;15.07;100.00
47897;BME280;39629;51.400;5.494;2022-09-09T03:37:40;100562.81;;;15.12;100.00
47897;BME280;39629;51.400;5.494;2022-09-09T03:42:44;100560.81;;;15.06;100.00
47897;BME280;39629;51.400;5.494;2022-09-09T03:47:47;100571.03;;;15.01;100.00
47897;BME280;39629;51.400;5.494;2022-09-09T03:52:49;100574.31;;;14.95;100.00
47897;BME280;39629;51.400;5.494;2022-09-09T03:57:55;100566.78;;;15.08;100.00
47897;BME280;39629;51.400;5.494;2022-09-09T04:02:59;100569.81;;;15.13;100.00
47897;BME280;39629;51.400;5.494;2022-09-09T04:08:01;100566.50;;;15.19;100.00
47897;BME280;39629;51.400;5.494;2022-09-09T04:13:04;100564.81;;;15.18;100.00
47897;BME280;39629;51.400;5.494;2022-09-09T04:18:07;100554.06;;;15.20;100.00
47897;BME280;39629;51.400;5.494;2022-09-09T04:23:09;100553.91;;;15.29;100.00
47897;BME280;39629;51.400;5.494;2022-09-09T04:28:10;100550.97;;;15.41;100.00
47897;BME280;39629;51.400;5.494;2022-09-09T04:33:14;100542.88;;;15.42;100.00
47897;BME280;39629;51.400;5.494;2022-09-09T04:38:17;100541.41;;;15.56;100.00
47897;BME280;39629;51.400;5.494;2022-09-09T04:43:19;100537.72;;;15.41;100.00
47897;BME280;39629;51.400;5.494;2022-09-09T04:48:24;100542.34;;;15.47;100.00
47897;BME280;39629;51.400;5.494;2022-09-09T04:53:26;100540.34;;;15.41;100.00
47897;BME280;39629;51.400;5.494;2022-09-09T04:58:28;100539.56;;;15.48;100.00
47897;BME280;39629;51.400;5.494;2022-09-09T05:03:31;100534.09;;;15.50;100.00
47897;BME280;39629;51.400;5.494;2022-09-09T05:08:33;100534.41;;;15.39;100.00
47897;BME280;39629;51.400;5.494;2022-09-09T05:13:35;100532.59;;;15.47;100.00
47897;BME280;39629;51.400;5.494;2022-09-09T05:18:39;100531.41;;;15.33;100.00
47897;BME280;39629;51.400;5.494;2022-09-09T05:23:42;100534.09;;;15.42;100.00
47897;BME280;39629;51.400;5.494;2022-09-09T05:28:44;100529.28;;;15.45;100.00
47897;BME280;39629;51.400;5.494;2022-09-09T05:33:47;100534.59;;;15.53;100.00
47897;BME280;39629;51.400;5.494;2022-09-09T05:38:50;100533.44;;;15.56;100.00
47897;BME280;39629;51.400;5.494;2022-09-09T05:43:54;100536.06;;;15.40;100.00
47897;BME280;39629;51.400;5.494;2022-09-09T05:48:58;100546.88;;;15.79;100.00
47897;BME280;39629;51.400;5.494;2022-09-09T05:54:04;100551.16;;;15.72;100.00
47897;BME280;39629;51.400;5.494;2022-09-09T05:59:10;100548.19;;;15.91;100.00
47897;BME280;39629;51.400;5.494;2022-09-09T06:04:15;100552.31;;;16.27;100.00
47897;BME280;39629;51.400;5.494;2022-09-09T06:09:17;100549.66;;;16.43;100.00
47897;BME280;39629;51.400;5.494;2022-09-09T06:14:18;100544.00;;;16.38;100.00
47897;BME280;39629;51.400;5.494;2022-09-09T06:19:23;100545.75;;;16.78;100.00
47897;BME280;39629;51.400;5.494;2022-09-09T06:24:28;100528.56;;;16.89;100.00
47897;BME280;39629;51.400;5.494;2022-09-09T06:29:31;100535.06;;;17.49;100.00
47897;BME280;39629;51.400;5.494;2022-09-09T06:34:34;100541.75;;;17.13;100.00
47897;BME280;39629;51.400;5.494;2022-09-09T06:39:37;100538.06;;;17.14;100.00
47897;BME280;39629;51.400;5.494;2022-09-09T06:44:39;100537.56;;;17.50;100.00
47897;BME280;39629;51.400;5.494;2022-09-09T06:49:46;100536.31;;;17.84;100.00
47897;BME280;39629;51.400;5.494;2022-09-09T06:54:47;100534.56;;;17.91;100.00
47897;BME280;39629;51.400;5.494;2022-09-09T06:59:50;100518.81;;;18.04;97.96
47897;BME280;39629;51.400;5.494;2022-09-09T07:04:55;100535.13;;;18.39;95.84
47897;BME280;39629;51.400;5.494;2022-09-09T07:09:59;100533.06;;;18.12;97.16
47897;BME280;39629;51.400;5.494;2022-09-09T07:15:02;100548.47;;;18.39;96.72
47897;BME280;39629;51.400;5.494;2022-09-09T07:20:06;100549.66;;;18.66;97.34
47897;BME280;39629;51.400;5.494;2022-09-09T07:25:08;100532.84;;;18.51;96.59
47897;BME280;39629;51.400;5.494;2022-09-09T07:30:11;100532.28;;;18.26;94.72
47897;BME280;39629;51.400;5.494;2022-09-09T07:35:14;100531.13;;;18.43;96.31
47897;BME280;39629;51.400;5.494;2022-09-09T07:40:16;100531.75;;;18.75;93.40
47897;BME280;39629;51.400;5.494;2022-09-09T07:45:18;100536.25;;;18.45;94.72
47897;BME280;39629;51.400;5.494;2022-09-09T07:50:21;100534.88;;;18.64;94.77
47897;BME280;39629;51.400;5.494;2022-09-09T07:55:24;100529.06;;;18.75;92.75
47897;BME280;39629;51.400;5.494;2022-09-09T08:00:27;100541.50;;;18.83;92.02
47897;BME280;39629;51.400;5.494;2022-09-09T08:05:32;100539.53;;;18.91;90.83
47897;BME280;39629;51.400;5.494;2022-09-09T08:10:34;100542.56;;;18.88;91.37
47897;BME280;39629;51.400;5.494;2022-09-09T08:15:36;100547.34;;;18.93;88.82
47897;BME280;39629;51.400;5.494;2022-09-09T08:20:40;100543.78;;;18.71;87.95
47897;BME280;39629;51.400;5.494;2022-09-09T08:25:42;100551.88;;;19.14;86.79
47897;BME280;39629;51.400;5.494;2022-09-09T08:30:45;100538.97;;;18.96;89.43
47897;BME280;39629;51.400;5.494;2022-09-09T08:35:51;100553.41;;;19.02;88.13
47897;BME280;39629;51.400;5.494;2022-09-09T08:40:57;100546.09;;;19.25;87.10
47897;BME280;39629;51.400;5.494;2022-09-09T08:46:09;100556.50;;;19.20;87.28
47897;BME280;39629;51.400;5.494;2022-09-09T08:51:16;100546.75;;;19.27;86.63
47897;BME280;39629;51.400;5.494;2022-09-09T08:56:22;100553.19;;;19.18;86.25
47897;BME280;39629;51.400;5.494;2022-09-09T09:01:49;100568.38;;;19.18;84.81
47897;BME280;39629;51.400;5.494;2022-09-09T09:07:22;100563.69;;;19.05;85.94
47897;BME280;39629;51.400;5.494;2022-09-09T09:12:35;100574.06;;;19.29;85.30
47897;BME280;39629;51.400;5.494;2022-09-09T09:17:38;100575.63;;;19.60;85.63
47897;BME280;39629;51.400;5.494;2022-09-09T09:22:48;100573.44;;;18.98;85.48
47897;BME280;39629;51.400;5.494;2022-09-09T09:28:03;100576.97;;;19.20;84.73
47897;BME280;39629;51.400;5.494;2022-09-09T09:33:18;100582.63;;;19.10;85.33
47897;BME280;39629;51.400;5.494;2022-09-09T09:38:26;100577.88;;;19.42;84.84
47897;BME280;39629;51.400;5.494;2022-09-09T09:43:32;100575.13;;;19.71;83.85
47897;BME280;39629;51.400;5.494;2022-09-09T09:48:37;100579.56;;;19.64;81.96
47897;BME280;39629;51.400;5.494;2022-09-09T09:53:41;100574.84;;;19.45;84.94
47897;BME280;39629;51.400;5.494;2022-09-09T09:58:51;100575.78;;;18.86;90.07
47897;BME280;39629;51.400;5.494;2022-09-09T10:04:00;100576.38;;;18.88;89.88
47897;BME280;39629;51.400;5.494;2022-09-09T10:09:21;100576.69;;;18.78;90.00
47897;BME280;39629;51.400;5.494;2022-09-09T10:14:30;100586.41;;;18.56;92.21
47897;BME280;39629;51.400;5.494;2022-09-09T10:19:36;100581.81;;;18.65;93.79
47897;BME280;39629;51.400;5.494;2022-09-09T10:24:58;100591.50;;;18.66;95.82
47897;BME280;39629;51.400;5.494;2022-09-09T10:30:12;100587.41;;;18.40;97.74
47897;BME280;39629;51.400;5.494;2022-09-09T10:35:24;100602.16;;;18.05;100.00
47897;BME280;39629;51.400;5.494;2022-09-09T10:40:33;100607.50;;;18.28;100.00
47897;BME280;39629;51.400;5.494;2022-09-09T10:45:44;100604.59;;;18.15;100.00
47897;BME280;39629;51.400;5.494;2022-09-09T10:50:53;100600.59;;;17.96;100.00
47897;BME280;39629;51.400;5.494;2022-09-09T10:56:01;100607.13;;;18.31;100.00
47897;BME280;39629;51.400;5.494;2022-09-09T11:01:11;100595.84;;;18.29;100.00
47897;BME280;39629;51.400;5.494;2022-09-09T11:06:18;100602.44;;;18.86;100.00
47897;BME280;39629;51.400;5.494;2022-09-09T11:11:27;100603.88;;;18.59;100.00
47897;BME280;39629;51.400;5.494;2022-09-09T11:16:34;100599.03;;;18.77;100.00
47897;BME280;39629;51.400;5.494;2022-09-09T11:21:43;100593.28;;;19.25;100.00
47897;BME280;39629;51.400;5.494;2022-09-09T11:26:50;100592.63;;;19.08;100.00
47897;BME280;39629;51.400;5.494;2022-09-09T11:32:03;100586.69;;;19.57;97.14
47897;BME280;39629;51.400;5.494;2022-09-09T11:37:22;100593.78;;;19.50;97.39
47897;BME280;39629;51.400;5.494;2022-09-09T11:42:30;100590.09;;;19.51;98.81
47897;BME280;39629;51.400;5.494;2022-09-09T11:47:32;100589.78;;;19.24;96.68
47897;BME280;39629;51.400;5.494;2022-09-09T11:52:38;100590.25;;;19.28;96.91
47897;BME280;39629;51.400;5.494;2022-09-09T11:57:44;100586.56;;;19.14;95.94
47897;BME280;39629;51.400;5.494;2022-09-09T12:02:48;100582.56;;;19.40;95.56
47897;BME280;39629;51.400;5.494;2022-09-09T12:07:52;100583.75;;;19.52;92.38
47897;BME280;39629;51.400;5.494;2022-09-09T12:13:07;100579.38;;;19.87;91.82
47897;BME280;39629;51.400;5.494;2022-09-09T12:18:14;100575.41;;;20.26;89.10
47897;BME280;39629;51.400;5.494;2022-09-09T12:23:30;100587.03;;;19.32;91.83
47897;BME280;39629;51.400;5.494;2022-09-09T12:28:52;100572.31;;;20.01;90.68
47897;BME280;39629;51.400;5.494;2022-09-09T12:34:06;100565.00;;;20.38;86.63
47897;BME280;39629;51.400;5.494;2022-09-09T12:39:17;100574.59;;;20.04;87.08
47897;BME280;39629;51.400;5.494;2022-09-09T12:44:21;100561.28;;;20.11;89.26
47897;BME280;39629;51.400;5.494;2022-09-09T12:49:28;100557.91;;;20.23;87.31
47897;BME280;39629;51.400;5.494;2022-09-09T12:54:31;100552.31;;;20.46;87.57
47897;BME280;39629;51.400;5.494;2022-09-09T12:59:40;100549.81;;;20.45;85.27
47897;BME280;39629;51.400;5.494;2022-09-09T13:04:43;100545.28;;;20.74;84.15
47897;BME280;39629;51.400;5.494;2022-09-09T13:09:48;100548.03;;;20.93;82.60
47897;BME280;39629;51.400;5.494;2022-09-09T13:14:53;100545.97;;;20.89;80.85
47897;BME280;39629;51.400;5.494;2022-09-09T13:19:57;100540.78;;;21.29;79.15
47897;BME280;39629;51.400;5.494;2022-09-09T13:25:05;100530.03;;;21.09;78.88
47897;BME280;39629;51.400;5.494;2022-09-09T13:30:24;100538.41;;;20.99;79.39
47897;BME280;39629;51.400;5.494;2022-09-09T13:35:26;100523.94;;;20.87;79.33
47897;BME280;39629;51.400;5.494;2022-09-09T13:40:28;100528.84;;;21.38;80.03
47897;BME280;39629;51.400;5.494;2022-09-09T13:45:32;100530.97;;;21.63;77.90
47897;BME280;39629;51.400;5.494;2022-09-09T13:50:35;100521.69;;;21.78;77.49
47897;BME280;39629;51.400;5.494;2022-09-09T13:55:37;100528.47;;;21.61;77.92
47897;BME280;39629;51.400;5.494;2022-09-09T14:00:40;100525.84;;;21.88;74.51
47897;BME280;39629;51.400;5.494;2022-09-09T14:05:44;100521.31;;;22.08;72.12
47897;BME280;39629;51.400;5.494;2022-09-09T14:10:46;100521.03;;;21.50;75.51
47897;BME280;39629;51.400;5.494;2022-09-09T14:15:49;100529.56;;;22.00;74.09
47897;BME280;39629;51.400;5.494;2022-09-09T14:20:51;100519.03;;;21.65;75.76
47897;BME280;39629;51.400;5.494;2022-09-09T14:25:52;100531.31;;;21.26;76.68
47897;BME280;39629;51.400;5.494;2022-09-09T14:30:59;100532.00;;;22.28;75.51
47897;BME280;39629;51.400;5.494;2022-09-09T14:36:02;100530.53;;;21.66;76.04
47897;BME280;39629;51.400;5.494;2022-09-09T14:41:04;100519.84;;;22.19;75.10
47897;BME280;39629;51.400;5.494;2022-09-09T14:46:09;100512.59;;;22.39;77.77
47897;BME280;39629;51.400;5.494;2022-09-09T14:51:12;100513.00;;;22.43;73.17
47897;BME280;39629;51.400;5.494;2022-09-09T14:56:17;100517.56;;;22.29;72.33
47897;BME280;39629;51.400;5.494;2022-09-09T15:01:21;100521.53;;;21.93;71.46
47897;BME280;39629;51.400;5.494;2022-09-09T15:06:23;100513.81;;;22.50;71.21
47897;BME280;39629;51.400;5.494;2022-09-09T15:11:26;100518.09;;;22.71;68.07
47897;BME280;39629;51.400;5.494;2022-09-09T15:16:30;100522.25;;;22.54;68.88
47897;BME280;39629;51.400;5.494;2022-09-09T15:21:34;100513.66;;;22.12;71.18
47897;BME280;39629;51.400;5.494;2022-09-09T15:26:37;100530.34;;;21.74;72.99
47897;BME280;39629;51.400;5.494;2022-09-09T15:31:41;100525.19;;;21.72;74.31
47897;BME280;39629;51.400;5.494;2022-09-09T15:36:44;100530.94;;;21.69;74.64
47897;BME280;39629;51.400;5.494;2022-09-09T15:41:47;100527.03;;;21.45;74.92
47897;BME280;39629;51.400;5.494;2022-09-09T15:46:51;100525.56;;;21.56;74.78
47897;BME280;39629;51.400;5.494;2022-09-09T15:51:57;100530.34;;;22.07;74.38
47897;BME280;39629;51.400;5.494;2022-09-09T15:57:01;100522.16;;;22.02;73.55
47897;BME280;39629;51.400;5.494;2022-09-09T16:02:04;100535.91;;;21.79;73.78
47897;BME280;39629;51.400;5.494;2022-09-09T16:07:06;100534.25;;;21.51;74.31
47897;BME280;39629;51.400;5.494;2022-09-09T16:12:08;100544.16;;;21.71;75.29
47897;BME280;39629;51.400;5.494;2022-09-09T16:17:13;100545.94;;;21.37;76.04
47897;BME280;39629;51.400;5.494;2022-09-09T16:22:16;100552.34;;;21.43;75.82
47897;BME280;39629;51.400;5.494;2022-09-09T16:27:18;100554.16;;;21.29;76.77
47897;BME280;39629;51.400;5.494;2022-09-09T16:32:21;100546.66;;;21.04;78.46
47897;BME280;39629;51.400;5.494;2022-09-09T16:37:22;100564.84;;;20.81;82.04
47897;BME280;39629;51.400;5.494;2022-09-09T16:42:24;100587.03;;;20.40;84.36
47897;BME280;39629;51.400;5.494;2022-09-09T16:47:27;100631.63;;;19.75;89.28
47897;BME280;39629;51.400;5.494;2022-09-09T16:52:29;100632.06;;;18.53;88.03
47897;BME280;39629;51.400;5.494;2022-09-09T16:57:31;100621.81;;;17.81;95.84
47897;BME280;39629;51.400;5.494;2022-09-09T17:02:34;100610.78;;;17.92;96.08
47897;BME280;39629;51.400;5.494;2022-09-09T17:07:35;100602.38;;;18.03;96.97
47897;BME280;39629;51.400;5.494;2022-09-09T17:12:37;100600.41;;;17.97;96.90
47897;BME280;39629;51.400;5.494;2022-09-09T17:17:40;100599.88;;;17.79;99.18
47897;BME280;39629;51.400;5.494;2022-09-09T17:22:45;100606.22;;;17.78;97.67
47897;BME280;39629;51.400;5.494;2022-09-09T17:27:46;100613.25;;;17.71;100.00
47897;BME280;39629;51.400;5.494;2022-09-09T17:32:49;100626.59;;;17.86;100.00
47897;BME280;39629;51.400;5.494;2022-09-09T17:37:52;100634.59;;;17.86;100.00
47897;BME280;39629;51.400;5.494;2022-09-09T17:42:56;100629.81;;;17.81;100.00
47897;BME280;39629;51.400;5.494;2022-09-09T17:47:58;100630.72;;;17.65;100.00
47897;BME280;39629;51.400;5.494;2022-09-09T17:53:00;100638.88;;;17.72;100.00
47897;BME280;39629;51.400;5.494;2022-09-09T17:58:02;100637.63;;;17.51;100.00
47897;BME280;39629;51.400;5.494;2022-09-09T18:03:05;100651.44;;;17.55;100.00
47897;BME280;39629;51.400;5.494;2022-09-09T18:08:07;100643.47;;;17.47;100.00
47897;BME280;39629;51.400;5.494;2022-09-09T18:13:09;100646.63;;;17.50;100.00
47897;BME280;39629;51.400;5.494;2022-09-09T18:18:11;100653.97;;;17.40;100.00
47897;BME280;39629;51.400;5.494;2022-09-09T18:23:13;100662.28;;;17.37;100.00
47897;BME280;39629;51.400;5.494;2022-09-09T18:28:15;100669.34;;;17.13;100.00
47897;BME280;39629;51.400;5.494;2022-09-09T18:33:18;100682.97;;;17.19;100.00
47897;BME280;39629;51.400;5.494;2022-09-09T18:38:20;100688.28;;;17.19;100.00
47897;BME280;39629;51.400;5.494;2022-09-09T18:43:24;100692.59;;;17.11;100.00
47897;BME280;39629;51.400;5.494;2022-09-09T18:48:27;100694.56;;;17.26;100.00
47897;BME280;39629;51.400;5.494;2022-09-09T18:53:28;100693.25;;;17.30;100.00
47897;BME280;39629;51.400;5.494;2022-09-09T18:58:31;100696.72;;;17.22;100.00
47897;BME280;39629;51.400;5.494;2022-09-09T19:03:35;100704.53;;;17.32;100.00
47897;BME280;39629;51.400;5.494;2022-09-09T19:08:38;100712.34;;;17.33;100.00
47897;BME280;39629;51.400;5.494;2022-09-09T19:13:41;100730.63;;;17.20;100.00
47897;BME280;39629;51.400;5.494;2022-09-09T19:18:44;100729.88;;;16.95;100.00
47897;BME280;39629;51.400;5.494;2022-09-09T19:23:48;100727.84;;;17.13;100.00
47897;BME280;39629;51.400;5.494;2022-09-09T19:28:50;100726.88;;;17.06;100.00
47897;BME280;39629;51.400;5.494;2022-09-09T19:33:54;100730.50;;;17.05;100.00
47897;BME280;39629;51.400;5.494;2022-09-09T19:38:57;100735.78;;;17.22;100.00
47897;BME280;39629;51.400;5.494;2022-09-09T19:44:02;100750.44;;;17.09;100.00
47897;BME280;39629;51.400;5.494;2022-09-09T19:49:06;100749.13;;;17.05;100.00
47897;BME280;39629;51.400;5.494;2022-09-09T19:54:10;100759.59;;;17.07;100.00
47897;BME280;39629;51.400;5.494;2022-09-09T19:59:13;100757.28;;;16.96;100.00
47897;BME280;39629;51.400;5.494;2022-09-09T20:04:16;100764.59;;;16.94;100.00
47897;BME280;39629;51.400;5.494;2022-09-09T20:09:19;100760.75;;;16.96;100.00
47897;BME280;39629;51.400;5.494;2022-09-09T20:14:21;100759.75;;;16.97;100.00
47897;BME280;39629;51.400;5.494;2022-09-09T20:19:23;100767.56;;;17.07;100.00
47897;BME280;39629;51.400;5.494;2022-09-09T20:24:25;100760.56;;;16.98;100.00
47897;BME280;39629;51.400;5.494;2022-09-09T20:29:26;100767.88;;;17.12;100.00
47897;BME280;39629;51.400;5.494;2022-09-09T20:34:29;100761.78;;;16.95;100.00
47897;BME280;39629;51.400;5.494;2022-09-09T20:39:31;100769.22;;;16.83;100.00
47897;BME280;39629;51.400;5.494;2022-09-09T20:44:34;100767.25;;;16.85;100.00
47897;BME280;39629;51.400;5.494;2022-09-09T20:49:37;100764.91;;;16.99;100.00
47897;BME280;39629;51.400;5.494;2022-09-09T20:54:39;100772.75;;;16.84;100.00
47897;BME280;39629;51.400;5.494;2022-09-09T20:59:41;100764.75;;;16.84;100.00
47897;BME280;39629;51.400;5.494;2022-09-09T21:04:44;100761.78;;;16.79;100.00
47897;BME280;39629;51.400;5.494;2022-09-09T21:09:46;100760.75;;;16.96;100.00
47897;BME280;39629;51.400;5.494;2022-09-09T21:14:48;100766.75;;;16.82;100.00
47897;BME280;39629;51.400;5.494;2022-09-09T21:19:51;100768.06;;;16.86;100.00
47897;BME280;39629;51.400;5.494;2022-09-09T21:24:52;100767.72;;;16.89;100.00
47897;BME280;39629;51.400;5.494;2022-09-09T21:29:54;100767.09;;;16.79;100.00
47897;BME280;39629;51.400;5.494;2022-09-09T21:34:57;100759.78;;;16.73;100.00
47897;BME280;39629;51.400;5.494;2022-09-09T21:39:58;100756.31;;;16.64;100.00
47897;BME280;39629;51.400;5.494;2022-09-09T21:45:00;100761.44;;;16.65;100.00
47897;BME280;39629;51.400;5.494;2022-09-09T21:50:03;100759.59;;;16.66;100.00
47897;BME280;39629;51.400;5.494;2022-09-09T21:55:06;100766.59;;;16.75;100.00
47897;BME280;39629;51.400;5.494;2022-09-09T22:00:10;100757.28;;;16.79;100.00
47897;BME280;39629;51.400;5.494;2022-09-09T22:05:17;100760.94;;;16.62;100.00
47897;BME280;39629;51.400;5.494;2022-09-09T22:10:19;100758.78;;;16.41;100.00
47897;BME280;39629;51.400;5.494;2022-09-09T22:15:21;100762.75;;;16.37;100.00
47897;BME280;39629;51.400;5.494;2022-09-09T22:20:23;100764.56;;;16.28;100.00
47897;BME280;39629;51.400;5.494;2022-09-09T22:25:26;100761.44;;;16.33;100.00
47897;BME280;39629;51.400;5.494;2022-09-09T22:30:27;100767.81;;;16.14;100.00
47897;BME280;39629;51.400;5.494;2022-09-09T22:35:30;100766.38;;;16.19;100.00
47897;BME280;39629;51.400;5.494;2022-09-09T22:40:33;100768.63;;;16.06;100.00
47897;BME280;39629;51.400;5.494;2022-09-09T22:45:35;100767.38;;;16.18;100.00
47897;BME280;39629;51.400;5.494;2022-09-09T22:50:38;100754.84;;;16.02;100.00
47897;BME280;39629;51.400;5.494;2022-09-09T22:55:41;100756.81;;;16.00;100.00
47897;BME280;39629;51.400;5.494;2022-09-09T23:00:43;100760.94;;;15.87;100.00
47897;BME280;39629;51.400;5.494;2022-09-09T23:05:53;100767.22;;;15.86;100.00
47897;BME280;39629;51.400;5.494;2022-09-09T23:10:56;100760.78;;;15.88;100.00
47897;BME280;39629;51.400;5.494;2022-09-09T23:15:58;100771.25;;;15.90;100.00
47897;BME280;39629;51.400;5.494;2022-09-09T23:21:04;100761.94;;;15.86;100.00
47897;BME280;39629;51.400;5.494;2022-09-09T23:26:07;100766.56;;;15.75;100.00
47897;BME280;39629;51.400;5.494;2022-09-09T23:31:12;100765.72;;;15.83;100.00
47897;BME280;39629;51.400;5.494;2022-09-09T23:36:18;100766.41;;;15.85;100.00
47897;BME280;39629;51.400;5.494;2022-09-09T23:41:20;100782.63;;;15.74;100.00
47897;BME280;39629;51.400;5.494;2022-09-09T23:46:24;100788.69;;;15.66;100.00
47897;BME280;39629;51.400;5.494;2022-09-09T23:51:30;100800.41;;;15.82;100.00
47897;BME280;39629;51.400;5.494;2022-09-09T23:56:36;100796.91;;;15.89;100.00
